Time;durP1;ratioP1;P1;durP2;ratioP2;P2;SDS_P1;SDS_P2;PMS_P1;PMS_P2;Temp;Humidity;BMP_temperature;BMP_pressure;BME280_temperature;BME280_humidity;BME280_pressure;Samples;Min_cycle;Max_cycle;Signal;HPM_P1;HPM_P2
2022/07/24 00:02:04;;;;;;;6.00;5.35;;;;;;;19.38;75.92;101712.09;4729636;30;20095;-76
2022/07/24 00:04:29;;;;;;;6.57;5.53;;;;;;;19.34;76.20;101710.13;4732453;30;20033;-77
2022/07/24 00:06:55;;;;;;;6.65;5.95;;;;;;;19.36;76.82;101716.22;4734084;30;20032;-76
2022/07/24 00:09:20;;;;;;;8.07;5.95;;;;;;;19.30;77.51;101715.34;4732421;30;20047;-77
2022/07/24 00:11:45;;;;;;;8.25;5.72;;;;;;;19.23;77.66;101707.31;4733519;30;20020;-77
2022/07/24 00:14:11;;;;;;;6.15;5.35;;;;;;;19.17;78.17;101716.59;4726395;30;20033;-77
2022/07/24 00:16:36;;;;;;;8.57;6.45;;;;;;;19.15;76.91;101705.06;4733195;30;20051;-77
2022/07/24 00:19:02;;;;;;;7.28;6.43;;;;;;;19.03;76.99;101701.69;4732995;30;20032;-77
2022/07/24 00:21:27;;;;;;;9.18;6.53;;;;;;;19.08;77.66;101701.72;4733368;30;20045;-76
2022/07/24 00:23:52;;;;;;;8.93;5.80;;;;;;;19.09;77.43;101697.88;4733028;30;20064;-76
2022/07/24 00:26:18;;;;;;;9.52;5.80;;;;;;;19.09;76.30;101695.97;4732678;30;20035;-76
2022/07/24 00:28:44;;;;;;;8.18;6.05;;;;;;;19.11;76.17;101696.53;4702745;30;20467;-76
2022/07/24 00:31:10;;;;;;;7.20;5.88;;;;;;;19.14;75.91;101695.16;4734877;30;20045;-76
2022/07/24 00:33:35;;;;;;;10.60;6.22;;;;;;;19.12;75.31;101689.13;4736442;30;20253;-76
2022/07/24 00:36:00;;;;;;;9.80;6.30;;;;;;;19.15;75.10;101694.09;4735196;30;20478;-76
2022/07/24 00:38:26;;;;;;;8.75;6.18;;;;;;;19.15;74.95;101702.31;4735522;30;20058;-76
2022/07/24 00:40:51;;;;;;;9.45;5.90;;;;;;;19.19;74.42;101703.47;4720279;30;20423;-76
2022/07/24 00:43:16;;;;;;;6.68;5.78;;;;;;;19.16;75.24;101709.47;4735542;30;20035;-76
2022/07/24 00:45:43;;;;;;;8.35;6.25;;;;;;;19.17;75.23;101704.81;4735906;30;20021;-76
2022/07/24 00:48:09;;;;;;;13.63;5.97;;;;;;;19.10;74.93;101702.28;4719948;30;20028;-76
2022/07/24 00:50:37;;;;;;;6.80;5.72;;;;;;;19.10;75.20;101707.78;4736044;30;20035;-76
2022/07/24 00:53:03;;;;;;;5.95;5.32;;;;;;;19.08;75.50;101707.19;4734655;30;20032;-76
2022/07/24 00:55:32;;;;;;;6.85;6.15;;;;;;;19.05;75.96;101702.22;4735171;30;20047;-77
2022/07/24 00:57:58;;;;;;;8.63;5.82;;;;;;;19.05;75.37;101697.59;4735970;30;20162;-77
2022/07/24 01:00:23;;;;;;;11.45;6.65;;;;;;;19.04;74.73;101698.66;4734577;30;20116;-76
2022/07/24 01:02:50;;;;;;;13.65;6.10;;;;;;;19.08;75.51;101693.47;4733490;30;20053;-76
2022/07/24 01:05:16;;;;;;;8.70;6.15;;;;;;;19.06;75.09;101701.97;4735413;30;20039;-76
2022/07/24 01:07:42;;;;;;;9.07;6.20;;;;;;;19.08;74.70;101698.97;4734745;30;20485;-77
2022/07/24 01:10:11;;;;;;;8.13;6.43;;;;;;;19.12;74.43;101689.13;4736086;30;20466;-77
2022/07/24 01:12:39;;;;;;;7.88;6.20;;;;;;;19.07;74.89;101689.09;4735308;30;20051;-76
2022/07/24 01:15:08;;;;;;;8.82;6.20;;;;;;;19.07;74.66;101683.63;4736153;30;20032;-76
2022/07/24 01:17:36;;;;;;;11.73;6.18;;;;;;;19.12;73.72;101680.91;4719588;30;20064;-77
2022/07/24 01:20:04;;;;;;;9.38;6.80;;;;;;;19.09;74.34;101686.91;4736008;30;20028;-76
2022/07/24 01:22:29;;;;;;;11.77;6.65;;;;;;;19.09;73.61;101676.75;4735251;30;20130;-77
2022/07/24 01:24:55;;;;;;;7.38;5.97;;;;;;;19.10;72.52;101678.41;4716614;30;20049;-77
2022/07/24 01:27:22;;;;;;;9.07;6.63;;;;;;;19.15;72.20;101691.34;4708698;30;20024;-77
2022/07/24 01:29:48;;;;;;;9.00;6.32;;;;;;;19.12;72.21;101692.69;4719786;30;20067;-77
2022/07/24 01:32:14;;;;;;;13.15;6.43;;;;;;;19.06;72.26;101681.94;4719643;30;20064;-76
2022/07/24 01:34:40;;;;;;;8.60;6.57;;;;;;;19.01;72.89;101684.63;4719907;30;20035;-77
2022/07/24 01:37:05;;;;;;;9.15;6.20;;;;;;;18.90;72.97;101681.81;4720189;30;20040;-77
2022/07/24 01:39:31;;;;;;;7.93;6.20;;;;;;;18.86;74.70;101683.44;4716693;30;20033;-77
2022/07/24 01:41:56;;;;;;;9.57;6.57;;;;;;;18.80;74.21;101684.44;4714984;30;20072;-77
2022/07/24 01:44:22;;;;;;;9.80;6.72;;;;;;;18.77;74.43;101685.78;4709889;30;20039;-77
2022/07/24 01:46:47;;;;;;;13.27;6.50;;;;;;;18.65;75.31;101681.56;4719330;30;20029;-77
2022/07/24 01:49:13;;;;;;;9.20;7.22;;;;;;;18.61;75.28;101686.72;4719145;30;20122;-77
2022/07/24 01:51:38;;;;;;;10.82;6.85;;;;;;;18.58;77.26;101673.53;4718515;30;20033;-77
2022/07/24 01:54:04;;;;;;;8.07;7.15;;;;;;;18.52;76.74;101680.84;4718594;30;20025;-77
2022/07/24 01:56:30;;;;;;;12.18;7.82;;;;;;;18.55;77.66;101676.78;4748856;30;20082;-77
2022/07/24 01:58:55;;;;;;;10.95;7.57;;;;;;;18.43;77.85;101674.19;4718310;30;20043;-77
2022/07/24 02:01:21;;;;;;;10.23;7.85;;;;;;;18.44;78.14;101673.13;4722616;30;20405;-77
2022/07/24 02:03:46;;;;;;;10.95;7.63;;;;;;;18.36;78.79;101679.06;4716107;30;20036;-77
2022/07/24 02:06:12;;;;;;;10.02;7.80;;;;;;;18.35;80.08;101675.47;4713438;30;20036;-77
2022/07/24 02:08:37;;;;;;;9.80;7.60;;;;;;;18.29;79.93;101671.03;4719085;30;20035;-77
2022/07/24 02:11:03;;;;;;;9.15;7.93;;;;;;;18.32;80.94;101675.19;4719586;30;20462;-77
2022/07/24 02:13:28;;;;;;;9.73;8.43;;;;;;;18.19;81.00;101669.03;4718660;30;20028;-77
2022/07/24 02:15:54;;;;;;;11.55;8.68;;;;;;;18.13;81.93;101674.69;4718949;30;20477;-77
2022/07/24 02:18:19;;;;;;;17.27;8.55;;;;;;;18.08;80.63;101669.97;4718674;30;20040;-76
2022/07/24 02:20:45;;;;;;;9.57;8.43;;;;;;;18.05;82.48;101673.22;4718833;30;20120;-77
2022/07/24 02:23:10;;;;;;;9.63;8.55;;;;;;;18.05;82.17;101671.28;4717748;30;20063;-76
2022/07/24 02:25:36;;;;;;;9.20;8.30;;;;;;;18.05;83.07;101662.25;4715395;30;20071;-77
2022/07/24 02:28:01;;;;;;;11.68;8.75;;;;;;;18.01;83.48;101664.69;4707128;30;20036;-77
2022/07/24 02:30:26;;;;;;;10.52;8.60;;;;;;;17.98;84.80;101658.88;4718486;30;20116;-76
2022/07/24 02:32:52;;;;;;;9.75;8.75;;;;;;;17.96;84.75;101672.81;4734155;30;20040;-77
2022/07/24 02:35:18;;;;;;;10.77;8.75;;;;;;;17.94;85.76;101668.72;4733220;30;20032;-76
2022/07/24 02:37:45;;;;;;;9.30;8.00;;;;;;;17.87;87.18;101669.69;4718414;30;20039;-76
2022/07/24 02:40:12;;;;;;;9.88;7.90;;;;;;;17.84;86.79;101670.19;4734889;30;20043;-76
2022/07/24 02:42:38;;;;;;;13.30;9.15;;;;;;;17.87;86.25;101672.44;4733214;30;20090;-76
2022/07/24 02:45:06;;;;;;;12.65;8.90;;;;;;;17.83;85.84;101679.50;4715245;30;20033;-77
2022/07/24 02:47:32;;;;;;;11.10;8.35;;;;;;;17.80;85.50;101677.25;4731675;30;20033;-76
2022/07/24 02:49:57;;;;;;;11.30;8.90;;;;;;;17.83;85.33;101693.19;4718839;30;20116;-77
2022/07/24 02:52:22;;;;;;;11.60;9.02;;;;;;;17.76;86.58;101684.31;4732920;30;20029;-77
2022/07/24 02:54:48;;;;;;;14.68;9.32;;;;;;;17.73;88.99;101686.75;4717528;30;20017;-77
2022/07/24 02:57:13;;;;;;;9.52;8.52;;;;;;;17.78;86.39;101684.88;4734652;30;20028;-77
2022/07/24 02:59:38;;;;;;;13.35;9.93;;;;;;;17.80;86.59;101682.75;4718074;30;20036;-77
2022/07/24 03:02:04;;;;;;;10.73;9.40;;;;;;;17.76;86.00;101670.63;4730375;30;20048;-77
2022/07/24 03:04:29;;;;;;;12.52;9.40;;;;;;;17.74;87.05;101688.38;4733556;30;20049;-77
2022/07/24 03:06:54;;;;;;;9.68;8.63;;;;;;;17.74;88.76;101678.28;4718576;30;20028;-77
2022/07/24 03:09:20;;;;;;;16.00;9.02;;;;;;;17.71;89.89;101679.59;4714813;30;20355;-77
2022/07/24 03:11:45;;;;;;;13.32;9.63;;;;;;;17.57;89.73;101674.75;4724023;30;20045;-77
2022/07/24 03:14:10;;;;;;;12.57;9.90;;;;;;;17.47;93.15;101672.69;4718216;30;20485;-77
2022/07/24 03:16:37;;;;;;;12.45;10.60;;;;;;;17.60;91.75;101668.75;4718216;30;20516;-77
2022/07/24 03:19:02;;;;;;;11.93;10.68;;;;;;;17.58;90.96;101679.97;4733283;30;20115;-77
2022/07/24 03:21:28;;;;;;;11.80;10.30;;;;;;;17.52;91.71;101675.50;4733131;30;20177;-77
2022/07/24 03:23:53;;;;;;;11.60;9.80;;;;;;;17.50;92.81;101666.72;4733430;30;20170;-77
2022/07/24 03:26:18;;;;;;;13.82;10.60;;;;;;;17.46;93.93;101666.38;4714605;30;20033;-77
2022/07/24 03:28:43;;;;;;;12.77;10.48;;;;;;;17.46;94.09;101671.03;4725715;30;20033;-77
2022/07/24 03:31:09;;;;;;;12.38;10.70;;;;;;;17.50;94.08;101674.94;4718355;30;20082;-77
2022/07/24 03:33:34;;;;;;;14.15;11.45;;;;;;;17.42;94.29;101664.41;4731902;30;20036;-77
2022/07/24 03:36:00;;;;;;;14.25;11.25;;;;;;;17.51;92.09;101676.56;4718403;30;20032;-77
2022/07/24 03:38:25;;;;;;;16.15;11.35;;;;;;;17.39;93.39;101678.59;4716880;30;20035;-77
2022/07/24 03:40:51;;;;;;;14.55;11.55;;;;;;;17.39;94.43;101673.94;4732925;30;20021;-77
2022/07/24 03:43:17;;;;;;;13.80;12.00;;;;;;;17.41;93.78;101676.41;4733135;30;20040;-77
2022/07/24 03:45:43;;;;;;;13.02;11.63;;;;;;;17.45;92.36;101683.03;4717473;30;20070;-77
2022/07/24 03:48:08;;;;;;;14.10;12.07;;;;;;;17.39;94.95;101667.63;4732821;30;20119;-77
2022/07/24 03:50:34;;;;;;;17.52;13.80;;;;;;;17.33;95.44;101662.09;4733439;30;20187;-77
2022/07/24 03:52:59;;;;;;;19.13;13.88;;;;;;;17.40;94.26;101661.09;4732136;30;20029;-77
2022/07/24 03:55:24;;;;;;;15.57;13.93;;;;;;;17.31;96.97;101666.97;4732850;30;20036;-77
2022/07/24 03:57:50;;;;;;;18.38;14.02;;;;;;;17.32;95.93;101654.16;4741858;30;20028;-77
2022/07/24 04:00:16;;;;;;;15.43;13.80;;;;;;;17.33;97.58;101661.25;4733552;30;20041;-77
2022/07/24 04:02:41;;;;;;;16.52;14.63;;;;;;;17.29;97.14;101668.31;4713749;30;20129;-77
2022/07/24 04:05:08;;;;;;;16.77;14.63;;;;;;;17.31;97.77;101660.69;4734917;30;20481;-77
2022/07/24 04:07:34;;;;;;;19.10;15.07;;;;;;;17.27;100.00;101663.09;4736661;30;20043;-77
2022/07/24 04:10:00;;;;;;;17.95;15.25;;;;;;;17.21;100.00;101661.38;4736905;30;20055;-77
2022/07/24 04:12:25;;;;;;;20.73;16.52;;;;;;;17.19;100.00;101663.50;4736704;30;20450;-77
2022/07/24 04:14:50;;;;;;;20.88;16.30;;;;;;;17.22;100.00;101656.72;4737325;30;20048;-77
2022/07/24 04:17:16;;;;;;;21.60;15.95;;;;;;;17.24;100.00;101657.28;4736361;30;20063;-77
2022/07/24 04:19:41;;;;;;;22.73;17.45;;;;;;;17.20;100.00;101656.16;4719859;30;20044;-77
2022/07/24 04:22:06;;;;;;;24.15;18.33;;;;;;;17.18;100.00;101659.97;4737121;30;20385;-77
2022/07/24 04:24:31;;;;;;;28.33;19.30;;;;;;;17.24;100.00;101660.03;4734717;30;20033;-77
2022/07/24 04:26:57;;;;;;;25.33;18.88;;;;;;;17.24;100.00;101668.22;4737087;30;20036;-77
2022/07/24 04:29:23;;;;;;;25.75;19.77;;;;;;;17.25;100.00;101659.78;4736287;30;20033;-77
2022/07/24 04:31:48;;;;;;;29.23;20.73;;;;;;;17.29;100.00;101679.28;4737180;30;20036;-77
2022/07/24 04:34:14;;;;;;;29.58;20.50;;;;;;;17.25;100.00;101675.38;4720667;30;20114;-77
2022/07/24 04:36:39;;;;;;;28.08;22.02;;;;;;;17.27;100.00;101668.56;4734994;30;20495;-77
2022/07/24 04:39:04;;;;;;;29.48;21.88;;;;;;;17.26;100.00;101677.84;4736241;30;20028;-77
2022/07/24 04:41:29;;;;;;;28.55;21.55;;;;;;;17.28;100.00;101674.88;4736618;30;20028;-77
2022/07/24 04:43:55;;;;;;;29.98;22.52;;;;;;;17.30;100.00;101680.91;4736748;30;20033;-77
2022/07/24 04:46:20;;;;;;;30.70;23.95;;;;;;;17.31;100.00;101683.38;4721036;30;20029;-77
2022/07/24 04:48:45;;;;;;;29.63;23.80;;;;;;;17.27;100.00;101675.94;4736757;30;20035;-77
2022/07/24 04:51:11;;;;;;;27.42;24.33;;;;;;;17.29;100.00;101677.34;4736916;30;20040;-77
2022/07/24 04:53:37;;;;;;;30.02;24.55;;;;;;;17.30;100.00;101678.16;4734404;30;20031;-77
2022/07/24 04:56:02;;;;;;;30.58;25.10;;;;;;;17.33;100.00;101683.13;4720966;30;20024;-77
2022/07/24 04:58:28;;;;;;;32.42;24.42;;;;;;;17.34;100.00;101676.59;4735905;30;20114;-77
2022/07/24 05:00:53;;;;;;;31.52;25.38;;;;;;;17.38;100.00;101683.25;4731965;30;20036;-77
2022/07/24 05:03:18;;;;;;;33.75;26.00;;;;;;;17.37;100.00;101676.09;4735477;30;20028;-77
2022/07/24 05:05:44;;;;;;;32.90;26.55;;;;;;;17.40;100.00;101675.59;4735529;30;20123;-77
2022/07/24 05:08:10;;;;;;;30.75;26.20;;;;;;;17.39;100.00;101671.19;4734993;30;20032;-77
2022/07/24 05:10:35;;;;;;;32.92;26.27;;;;;;;17.40;100.00;101661.91;4720226;30;20029;-77
2022/07/24 05:13:00;;;;;;;31.45;26.10;;;;;;;17.46;100.00;101666.38;4736475;30;20112;-77
2022/07/24 05:15:26;;;;;;;34.85;26.17;;;;;;;17.53;100.00;101672.50;4719230;30;20120;-77
2022/07/24 05:17:51;;;;;;;33.60;26.13;;;;;;;17.46;100.00;101660.91;4720397;30;20040;-77
2022/07/24 05:20:16;;;;;;;32.45;25.88;;;;;;;17.45;100.00;101674.84;4735125;30;20119;-77
2022/07/24 05:22:42;;;;;;;35.03;26.08;;;;;;;17.52;100.00;101673.59;4735363;30;20540;-77
2022/07/24 05:25:07;;;;;;;35.03;26.25;;;;;;;17.56;100.00;101678.56;4734568;30;20044;-77
2022/07/24 05:27:33;;;;;;;30.70;25.83;;;;;;;17.58;100.00;101679.16;4718955;30;20249;-77
2022/07/24 05:29:58;;;;;;;39.78;26.98;;;;;;;17.60;100.00;101676.97;4719908;30;20033;-77
2022/07/24 05:32:23;;;;;;;37.15;26.88;;;;;;;17.62;100.00;101685.75;4720187;30;20044;-78
2022/07/24 05:34:49;;;;;;;37.45;26.80;;;;;;;17.66;100.00;101684.16;4734933;30;20066;-77
2022/07/24 05:37:14;;;;;;;35.22;26.42;;;;;;;17.67;100.00;101692.13;4735764;30;20119;-77
2022/07/24 05:39:39;;;;;;;32.40;26.50;;;;;;;17.68;100.00;101687.50;4735115;30;20443;-77
2022/07/24 05:42:05;;;;;;;33.17;26.85;;;;;;;17.73;100.00;101690.31;4735301;30;20036;-77
2022/07/24 05:44:30;;;;;;;31.83;25.00;;;;;;;17.73;100.00;101703.16;4716445;30;20033;-77
2022/07/24 05:46:55;;;;;;;33.85;25.90;;;;;;;17.75;100.00;101690.88;4718422;30;20040;-77
2022/07/24 05:49:21;;;;;;;32.22;25.60;;;;;;;17.83;100.00;101687.72;4727874;30;20044;-77
2022/07/24 05:51:46;;;;;;;32.47;25.98;;;;;;;17.89;100.00;101685.91;4735203;30;20102;-77
2022/07/24 05:54:11;;;;;;;32.92;24.58;;;;;;;17.99;100.00;101694.22;4718178;30;20123;-77
2022/07/24 05:56:37;;;;;;;36.53;24.67;;;;;;;18.03;99.40;101687.16;4734450;30;20466;-77
2022/07/24 05:59:02;;;;;;;37.28;24.75;;;;;;;18.06;100.00;101685.84;4716459;30;20041;-78
2022/07/24 06:01:28;;;;;;;33.72;24.50;;;;;;;18.11;100.00;101690.56;4720435;30;20123;-78
2022/07/24 06:03:53;;;;;;;28.50;23.08;;;;;;;18.12;95.89;101679.34;4718951;30;20079;-78
2022/07/24 06:06:18;;;;;;;30.88;22.88;;;;;;;18.17;95.03;101692.25;4716822;30;20036;-78
2022/07/24 06:08:45;;;;;;;29.58;22.88;;;;;;;18.18;92.56;101700.22;4706130;30;20065;-78
2022/07/24 06:11:11;;;;;;;28.23;22.83;;;;;;;18.18;94.89;101694.75;4719368;30;20039;-78
2022/07/24 06:13:36;;;;;;;28.23;23.70;;;;;;;18.26;94.63;101695.38;4733876;30;20021;-76
2022/07/24 06:16:02;;;;;;;32.25;22.85;;;;;;;18.34;95.24;101692.19;4735121;30;20028;-76
2022/07/24 06:18:27;;;;;;;27.83;22.02;;;;;;;18.39;91.12;101695.81;4718595;30;20024;-77
2022/07/24 06:20:52;;;;;;;25.75;20.50;;;;;;;18.42;88.40;101694.47;4734923;30;20082;-77
2022/07/24 06:23:18;;;;;;;28.65;21.65;;;;;;;18.49;90.73;101706.03;4717928;30;20385;-77
2022/07/24 06:25:43;;;;;;;27.38;20.65;;;;;;;18.48;89.30;101709.03;4718409;30;20028;-76
2022/07/24 06:28:09;;;;;;;28.95;21.58;;;;;;;18.54;88.19;101694.31;4718754;30;20094;-76
2022/07/24 06:30:34;;;;;;;26.60;20.35;;;;;;;18.60;88.11;101690.56;4718497;30;20036;-77
2022/07/24 06:33:00;;;;;;;28.17;20.15;;;;;;;18.67;87.63;101701.31;4718464;30;20037;-77
2022/07/24 06:35:26;;;;;;;28.27;20.08;;;;;;;18.71;87.61;101703.25;4718692;30;20119;-76
2022/07/24 06:37:52;;;;;;;27.20;19.38;;;;;;;18.82;85.43;101709.66;4719197;30;20048;-77
2022/07/24 06:40:19;;;;;;;27.55;19.48;;;;;;;18.88;86.05;101713.34;4733567;30;20044;-76
2022/07/24 06:42:46;;;;;;;23.98;17.67;;;;;;;18.91;83.53;101708.13;4733243;30;20039;-77
2022/07/24 06:45:12;;;;;;;21.33;16.52;;;;;;;18.95;82.07;101703.81;4733149;30;20048;-77
2022/07/24 06:47:37;;;;;;;23.20;17.00;;;;;;;18.99;81.94;101695.03;4734771;30;20033;-77
2022/07/24 06:50:04;;;;;;;19.95;16.15;;;;;;;19.04;81.38;101695.94;4734466;30;20048;-77
2022/07/24 06:52:29;;;;;;;21.70;15.80;;;;;;;19.09;80.12;101693.22;4731636;30;20051;-77
2022/07/24 06:54:55;;;;;;;22.23;16.10;;;;;;;19.18;79.69;101698.22;4733362;30;20041;-77
2022/07/24 06:57:20;;;;;;;22.50;14.63;;;;;;;19.21;79.26;101690.28;4734351;30;20037;-77
2022/07/24 06:59:45;;;;;;;20.67;14.73;;;;;;;19.29;79.02;101692.56;4715300;30;20111;-77
2022/07/24 07:02:11;;;;;;;21.42;14.95;;;;;;;19.37;78.45;101688.50;4724990;30;20095;-77
2022/07/24 07:04:36;;;;;;;19.13;13.55;;;;;;;19.45;78.94;101684.44;4733316;30;20060;-77
2022/07/24 07:07:03;;;;;;;16.33;12.30;;;;;;;19.48;74.15;101686.66;4734601;30;20037;-77
2022/07/24 07:09:28;;;;;;;18.20;12.15;;;;;;;19.54;75.18;101676.53;4733928;30;20044;-77
2022/07/24 07:11:53;;;;;;;16.10;10.75;;;;;;;19.61;73.08;101685.34;4733399;30;20039;-77
2022/07/24 07:14:19;;;;;;;12.20;9.82;;;;;;;19.66;72.79;101675.22;4717590;30;20067;-77
2022/07/24 07:16:44;;;;;;;15.93;10.10;;;;;;;19.75;71.43;101692.03;4734250;30;20469;-77
2022/07/24 07:19:09;;;;;;;12.95;9.85;;;;;;;19.81;70.76;101693.72;4733956;30;20458;-77
2022/07/24 07:21:36;;;;;;;12.30;8.82;;;;;;;19.89;70.77;101700.63;4733346;30;20032;-77
2022/07/24 07:24:01;;;;;;;11.20;8.60;;;;;;;19.97;70.11;101704.78;4733788;30;20131;-77
2022/07/24 07:26:27;;;;;;;11.30;7.13;;;;;;;20.06;69.24;101699.59;4734397;30;20427;-77
2022/07/24 07:28:52;;;;;;;9.63;6.70;;;;;;;20.15;68.13;101703.50;4714677;30;20072;-78
2022/07/24 07:31:17;;;;;;;7.03;5.88;;;;;;;20.23;66.96;101699.38;4731958;30;20114;-77
2022/07/24 07:33:43;;;;;;;6.93;5.10;;;;;;;20.27;63.59;101695.84;4718076;30;20036;-77
2022/07/24 07:36:08;;;;;;;8.50;5.18;;;;;;;20.32;63.65;101692.28;4731798;30;20386;-77
2022/07/24 07:38:35;;;;;;;7.70;4.90;;;;;;;20.36;63.51;101699.72;4733563;30;20123;-77
2022/07/24 07:41:00;;;;;;;6.82;4.25;;;;;;;20.41;62.38;101695.31;4739734;30;20090;-77
2022/07/24 07:43:25;;;;;;;5.05;3.85;;;;;;;20.47;61.63;101691.50;4722923;30;20413;-77
2022/07/24 07:45:51;;;;;;;6.18;3.55;;;;;;;20.57;61.87;101694.28;4739471;30;20040;-77
2022/07/24 07:48:16;;;;;;;6.05;3.40;;;;;;;20.58;59.46;101695.94;4739639;30;20622;-77
2022/07/24 07:50:41;;;;;;;4.25;2.80;;;;;;;20.70;58.88;101701.22;4738154;30;20037;-77
2022/07/24 07:53:08;;;;;;;2.95;2.50;;;;;;;20.75;56.53;101698.47;4738469;30;20530;-77
2022/07/24 07:55:33;;;;;;;3.65;2.60;;;;;;;20.81;56.67;101693.78;4737743;30;20055;-78
2022/07/24 07:57:58;;;;;;;4.00;2.58;;;;;;;20.84;57.31;101688.56;4738824;30;20462;-74
2022/07/24 08:00:27;;;;;;;3.78;2.67;;;;;;;20.90;57.79;101692.16;4736406;30;20044;-80
2022/07/24 08:02:52;;;;;;;4.70;2.33;;;;;;;21.00;56.68;101691.31;4721450;30;20060;-75
2022/07/24 08:05:17;;;;;;;2.85;2.65;;;;;;;21.07;55.95;101683.63;4732316;30;20112;-75
2022/07/24 08:07:43;;;;;;;4.40;2.30;;;;;;;21.11;56.19;101681.16;4737508;30;20067;-76
2022/07/24 08:10:08;;;;;;;2.90;2.30;;;;;;;21.15;55.41;101680.31;4730834;30;20025;-74
2022/07/24 08:12:34;;;;;;;2.85;2.42;;;;;;;21.22;54.86;101688.28;4733868;30;20053;-76
2022/07/24 08:14:59;;;;;;;4.15;2.50;;;;;;;21.30;55.95;101690.47;4736478;30;20102;-75
2022/07/24 08:17:24;;;;;;;2.60;2.40;;;;;;;21.42;55.74;101690.19;4731927;30;20048;-75
2022/07/24 08:19:49;;;;;;;3.78;2.45;;;;;;;21.43;54.71;101689.91;4735890;30;21904;-74
2022/07/24 08:22:15;;;;;;;2.85;2.20;;;;;;;21.43;55.57;101687.16;4719377;30;20056;-72
2022/07/24 08:24:40;;;;;;;3.42;2.58;;;;;;;21.51;54.56;101695.97;4731289;30;20037;-73
2022/07/24 08:27:06;;;;;;;4.47;2.70;;;;;;;21.55;55.73;101697.09;4731674;30;20477;-72
2022/07/24 08:29:32;;;;;;;3.08;2.47;;;;;;;21.58;54.85;101691.84;4737264;30;20040;-73
2022/07/24 08:31:57;;;;;;;2.97;2.50;;;;;;;21.62;54.90;101691.28;4729762;30;20389;-70
2022/07/24 08:34:23;;;;;;;3.55;2.50;;;;;;;21.68;55.96;101696.50;4736539;30;20036;-75
2022/07/24 08:36:49;;;;;;;3.28;2.30;;;;;;;21.72;54.76;101700.31;4737768;30;20036;-74
2022/07/24 08:39:15;;;;;;;3.85;2.47;;;;;;;21.76;55.92;101693.16;4735431;30;20028;-76
2022/07/24 08:41:41;;;;;;;4.25;3.03;;;;;;;21.83;55.97;101686.53;4732085;30;20048;-76
2022/07/24 08:44:06;;;;;;;3.85;2.83;;;;;;;21.85;55.70;101692.59;4720681;30;20037;-75
2022/07/24 08:46:32;;;;;;;4.22;2.78;;;;;;;21.87;56.31;101687.63;4723746;30;20044;-77
2022/07/24 08:48:58;;;;;;;4.68;2.78;;;;;;;21.96;57.22;101685.94;4734200;30;20052;-75
2022/07/24 08:51:30;;;;;;;4.45;3.55;;;;;;;21.98;56.17;101682.91;4734470;30;20115;-75
2022/07/24 08:53:56;;;;;;;5.07;3.20;;;;;;;22.02;56.12;101679.28;4717383;30;20040;-76
2022/07/24 08:56:22;;;;;;;4.03;3.00;;;;;;;22.11;56.47;101677.59;4710005;30;20103;-77
2022/07/24 08:58:47;;;;;;;4.95;3.10;;;;;;;22.16;55.86;101679.50;4724231;30;20048;-77
2022/07/24 09:01:12;;;;;;;4.03;2.90;;;;;;;22.16;56.28;101679.50;4719682;30;20394;-74
2022/07/24 09:03:42;;;;;;;5.45;3.20;;;;;;;22.22;56.17;101680.31;4723890;30;20032;-75
2022/07/24 09:06:10;;;;;;;4.33;3.17;;;;;;;22.26;56.82;101684.16;4726739;30;20033;-73
2022/07/24 09:08:35;;;;;;;5.40;2.95;;;;;;;22.37;57.62;101669.22;4730874;30;20279;-72
2022/07/24 09:11:10;;;;;;;8.77;3.10;;;;;;;22.46;57.39;101673.03;4731388;30;20373;-74
2022/07/24 09:16:22;;;;;;;3.15;2.78;;;;;;;22.60;56.89;101666.84;4725662;30;20091;-73
2022/07/24 09:18:49;;;;;;;3.58;2.80;;;;;;;22.67;56.86;101666.56;4718382;30;20508;-73
2022/07/24 09:21:15;;;;;;;4.57;3.10;;;;;;;22.68;56.64;101659.91;4734581;30;20056;-74
2022/07/24 09:23:42;;;;;;;9.35;3.20;;;;;;;22.72;56.23;101663.75;4735075;30;20381;-74
2022/07/24 09:26:07;;;;;;;3.42;2.90;;;;;;;22.73;56.53;101655.19;4728540;30;20115;-74
2022/07/24 09:28:53;;;;;;;3.08;2.75;;;;;;;22.78;56.51;101657.91;4723136;30;20041;-74
2022/07/24 09:31:21;;;;;;;3.63;2.75;;;;;;;22.86;56.48;101650.09;4722483;30;20044;-74
2022/07/24 09:33:46;;;;;;;4.18;2.70;;;;;;;22.89;55.63;101657.81;4721759;30;20047;-74
2022/07/24 09:36:17;;;;;;;3.55;2.72;;;;;;;22.91;56.32;101644.56;4732350;30;20359;-74
2022/07/24 09:38:50;;;;;;;2.90;2.25;;;;;;;22.94;55.95;101649.50;4718373;30;20041;-74
2022/07/24 09:41:21;;;;;;;3.33;2.70;;;;;;;23.00;56.09;101649.16;4729066;30;20036;-73
2022/07/24 09:43:57;;;;;;;3.90;2.60;;;;;;;23.03;56.04;101645.00;4723518;30;20463;-72
2022/07/24 09:46:24;;;;;;;4.43;2.50;;;;;;;23.04;55.73;101643.06;4729342;30;20048;-73
2022/07/24 09:48:54;;;;;;;3.35;2.40;;;;;;;23.10;55.12;101642.75;4735078;30;20037;-73
2022/07/24 09:51:20;;;;;;;2.88;2.60;;;;;;;23.12;55.05;101651.56;4722337;30;20025;-71
2022/07/24 09:53:47;;;;;;;3.35;2.45;;;;;;;23.15;55.35;101639.94;4729398;30;20036;-73
2022/07/24 09:56:15;;;;;;;2.45;2.25;;;;;;;23.18;54.33;101636.59;4731867;30;20548;-74
2022/07/24 09:58:47;;;;;;;2.45;2.05;;;;;;;23.21;54.44;101637.16;4718384;30;20402;-74
2022/07/24 10:01:15;;;;;;;3.38;2.70;;;;;;;23.26;55.00;101635.13;4718336;30;20048;-73
2022/07/24 10:03:43;;;;;;;4.22;2.20;;;;;;;23.31;54.11;101625.97;4727786;30;20049;-72
2022/07/24 10:06:10;;;;;;;2.28;2.08;;;;;;;23.38;54.55;101643.03;4732722;30;20403;-72
2022/07/24 10:08:37;;;;;;;4.22;2.38;;;;;;;23.39;53.55;101638.34;4735485;30;20037;-74
2022/07/24 10:11:03;;;;;;;2.47;2.10;;;;;;;23.41;53.28;101628.63;4714380;30;20033;-74
2022/07/24 10:13:29;;;;;;;4.38;2.78;;;;;;;23.48;53.21;101623.59;4725120;30;20033;-74
2022/07/24 10:16:28;;;;;;;3.67;2.20;;;;;;;23.57;53.98;101621.00;4719144;30;20371;-72
2022/07/24 10:22:25;;;;;;;2.63;2.30;;;;;;;23.80;54.12;101616.56;4720851;30;20064;-75
2022/07/24 10:24:58;;;;;;;3.38;2.30;;;;;;;23.90;52.95;101618.41;4717979;30;20428;-74
2022/07/24 10:27:35;;;;;;;3.22;2.40;;;;;;;23.97;53.07;101612.50;4718762;30;20051;-74
2022/07/24 10:30:05;;;;;;;2.63;2.42;;;;;;;24.02;52.00;101612.44;4733108;30;20056;-74
2022/07/24 10:32:32;;;;;;;3.08;2.75;;;;;;;24.05;51.68;101609.91;4733320;30;20078;-74
2022/07/24 10:35:02;;;;;;;3.55;2.40;;;;;;;24.21;53.22;101610.50;4734681;30;20094;-73
2022/07/24 10:37:36;;;;;;;2.65;2.40;;;;;;;24.23;51.51;101597.22;4734847;30;20085;-74
2022/07/24 10:40:30;;;;;;;3.42;2.38;;;;;;;24.33;51.65;101606.47;4733255;30;20430;-75
2022/07/24 10:43:11;;;;;;;4.50;2.53;;;;;;;24.47;51.08;101607.34;4733262;30;20047;-75
2022/07/24 10:45:49;;;;;;;2.58;2.20;;;;;;;24.46;50.78;101599.34;4740024;30;20024;-73
2022/07/24 10:48:20;;;;;;;3.15;2.47;;;;;;;24.53;49.72;101603.38;4734920;30;20028;-72
2022/07/24 10:51:00;;;;;;;3.05;2.30;;;;;;;24.57;49.72;101598.88;4732778;30;20506;-76
2022/07/24 10:53:43;;;;;;;3.10;2.20;;;;;;;24.66;48.62;101598.22;4721552;30;20390;-73
2022/07/24 10:56:28;;;;;;;2.60;2.30;;;;;;;24.66;49.08;101587.16;4735000;30;20028;-72
2022/07/24 10:59:03;;;;;;;3.13;2.45;;;;;;;24.73;49.91;101582.88;4734699;30;20029;-72
2022/07/24 11:01:33;;;;;;;3.13;2.70;;;;;;;24.76;49.12;101587.81;4729248;30;20095;-72
2022/07/24 11:04:18;;;;;;;4.90;2.72;;;;;;;24.84;49.30;101585.47;4729803;30;20488;-74
2022/07/24 11:06:53;;;;;;;2.78;2.50;;;;;;;24.83;49.41;101576.31;4731044;30;20043;-74
2022/07/24 11:09:21;;;;;;;3.95;2.60;;;;;;;24.88;48.97;101579.00;4713636;30;20122;-72
2022/07/24 11:11:55;;;;;;;2.20;1.90;;;;;;;24.96;48.27;101583.03;4732593;30;20139;-73
2022/07/24 11:14:42;;;;;;;3.65;2.28;;;;;;;25.12;48.63;101591.84;4716141;30;20041;-74
2022/07/24 11:17:52;;;;;;;4.05;2.20;;;;;;;25.26;48.59;101595.47;4716436;30;20033;-75
2022/07/24 11:20:19;;;;;;;3.05;2.17;;;;;;;25.34;47.78;101585.66;4713360;30;20619;-74
2022/07/24 11:22:53;;;;;;;3.25;2.20;;;;;;;25.39;48.04;101593.84;4717213;30;20083;-73